sensor_id;sensor_type;location;lat;lon;timestamp;P1;durP1;ratioP1;P2;durP2;ratioP2
9413;SDS011;4746;35.664;139.738;2024-02-15T00:01:08;26.73;;;23.73;;
9413;SDS011;4746;35.664;139.738;2024-02-15T00:03:36;24.47;;;21.97;;
9413;SDS011;4746;35.664;139.738;2024-02-15T00:06:03;25.50;;;22.17;;
9413;SDS011;4746;35.664;139.738;2024-02-15T00:08:31;27.50;;;24.60;;
9413;SDS011;4746;35.664;139.738;2024-02-15T00:11:00;27.23;;;24.33;;
9413;SDS011;4746;35.664;139.738;2024-02-15T00:13:28;28.73;;;23.10;;
9413;SDS011;4746;35.664;139.738;2024-02-15T00:15:58;30.03;;;24.70;;
9413;SDS011;4746;35.664;139.738;2024-02-15T00:18:26;28.70;;;24.43;;
9413;SDS011;4746;35.664;139.738;2024-02-15T00:20:54;26.47;;;23.67;;
9413;SDS011;4746;35.664;139.738;2024-02-15T00:23:21;33.50;;;25.30;;
9413;SDS011;4746;35.664;139.738;2024-02-15T00:25:48;31.10;;;25.37;;
9413;SDS011;4746;35.664;139.738;2024-02-15T00:28:16;36.03;;;25.77;;
9413;SDS011;4746;35.664;139.738;2024-02-15T00:30:43;30.27;;;26.10;;
9413;SDS011;4746;35.664;139.738;2024-02-15T00:33:11;40.27;;;26.13;;
9413;SDS011;4746;35.664;139.738;2024-02-15T00:35:38;29.43;;;26.33;;
9413;SDS011;4746;35.664;139.738;2024-02-15T00:38:06;30.50;;;27.00;;
9413;SDS011;4746;35.664;139.738;2024-02-15T00:40:33;31.43;;;26.00;;
9413;SDS011;4746;35.664;139.738;2024-02-15T00:43:06;28.10;;;25.23;;
9413;SDS011;4746;35.664;139.738;2024-02-15T00:45:34;34.03;;;27.90;;
9413;SDS011;4746;35.664;139.738;2024-02-15T00:48:03;32.13;;;26.90;;
9413;SDS011;4746;35.664;139.738;2024-02-15T00:50:31;28.07;;;25.17;;
9413;SDS011;4746;35.664;139.738;2024-02-15T00:52:59;32.23;;;28.73;;
9413;SDS011;4746;35.664;139.738;2024-02-15T00:55:26;30.07;;;26.97;;
9413;SDS011;4746;35.664;139.738;2024-02-15T00:57:54;26.83;;;24.07;;
9413;SDS011;4746;35.664;139.738;2024-02-15T01:00:21;27.97;;;25.20;;
9413;SDS011;4746;35.664;139.738;2024-02-15T01:02:49;28.20;;;25.30;;
9413;SDS011;4746;35.664;139.738;2024-02-15T01:05:16;28.47;;;24.73;;
9413;SDS011;4746;35.664;139.738;2024-02-15T01:07:44;28.20;;;25.53;;
9413;SDS011;4746;35.664;139.738;2024-02-15T01:10:14;31.43;;;27.23;;
9413;SDS011;4746;35.664;139.738;2024-02-15T01:12:45;22.17;;;19.63;;
9413;SDS011;4746;35.664;139.738;2024-02-15T01:15:14;27.10;;;22.67;;
9413;SDS011;4746;35.664;139.738;2024-02-15T01:17:44;25.90;;;23.30;;
9413;SDS011;4746;35.664;139.738;2024-02-15T01:20:12;27.13;;;22.70;;
9413;SDS011;4746;35.664;139.738;2024-02-15T01:22:40;22.40;;;19.93;;
9413;SDS011;4746;35.664;139.738;2024-02-15T01:25:11;25.80;;;23.10;;
9413;SDS011;4746;35.664;139.738;2024-02-15T01:27:41;17.73;;;14.97;;
9413;SDS011;4746;35.664;139.738;2024-02-15T01:30:10;19.80;;;14.80;;
9413;SDS011;4746;35.664;139.738;2024-02-15T01:32:38;16.97;;;15.23;;
9413;SDS011;4746;35.664;139.738;2024-02-15T01:35:07;14.27;;;12.77;;
9413;SDS011;4746;35.664;139.738;2024-02-15T01:37:35;12.83;;;11.17;;
9413;SDS011;4746;35.664;139.738;2024-02-15T01:40:04;14.37;;;12.47;;
9413;SDS011;4746;35.664;139.738;2024-02-15T01:42:38;15.33;;;11.03;;
9413;SDS011;4746;35.664;139.738;2024-02-15T01:45:06;13.33;;;11.30;;
9413;SDS011;4746;35.664;139.738;2024-02-15T01:47:37;12.00;;;10.00;;
9413;SDS011;4746;35.664;139.738;2024-02-15T01:50:12;10.00;;;9.10;;
9413;SDS011;4746;35.664;139.738;2024-02-15T01:52:43;10.63;;;9.53;;
9413;SDS011;4746;35.664;139.738;2024-02-15T01:55:14;11.10;;;9.57;;
9413;SDS011;4746;35.664;139.738;2024-02-15T01:57:45;8.80;;;7.23;;
9413;SDS011;4746;35.664;139.738;2024-02-15T02:00:15;8.77;;;6.90;;
9413;SDS011;4746;35.664;139.738;2024-02-15T02:02:45;7.63;;;6.87;;
9413;SDS011;4746;35.664;139.738;2024-02-15T02:05:13;7.53;;;6.80;;
9413;SDS011;4746;35.664;139.738;2024-02-15T02:07:41;6.67;;;6.07;;
9413;SDS011;4746;35.664;139.738;2024-02-15T02:10:08;6.93;;;6.30;;
9413;SDS011;4746;35.664;139.738;2024-02-15T02:12:37;7.07;;;6.33;;
9413;SDS011;4746;35.664;139.738;2024-02-15T02:15:07;7.67;;;6.57;;
9413;SDS011;4746;35.664;139.738;2024-02-15T02:17:36;6.87;;;5.87;;
9413;SDS011;4746;35.664;139.738;2024-02-15T02:20:06;6.73;;;5.93;;
9413;SDS011;4746;35.664;139.738;2024-02-15T02:22:36;7.87;;;5.87;;
9413;SDS011;4746;35.664;139.738;2024-02-15T02:25:07;6.97;;;5.30;;
9413;SDS011;4746;35.664;139.738;2024-02-15T02:27:36;6.23;;;5.50;;
9413;SDS011;4746;35.664;139.738;2024-02-15T02:30:16;6.37;;;5.53;;
9413;SDS011;4746;35.664;139.738;2024-02-15T02:32:47;6.70;;;5.23;;
9413;SDS011;4746;35.664;139.738;2024-02-15T02:35:14;7.83;;;5.20;;
9413;SDS011;4746;35.664;139.738;2024-02-15T02:37:42;6.17;;;5.63;;
9413;SDS011;4746;35.664;139.738;2024-02-15T02:40:10;5.80;;;4.90;;
9413;SDS011;4746;35.664;139.738;2024-02-15T02:42:49;9.10;;;5.07;;
9413;SDS011;4746;35.664;139.738;2024-02-15T02:45:19;8.97;;;5.60;;
9413;SDS011;4746;35.664;139.738;2024-02-15T02:47:56;6.23;;;5.63;;
9413;SDS011;4746;35.664;139.738;2024-02-15T02:50:24;7.30;;;5.30;;
9413;SDS011;4746;35.664;139.738;2024-02-15T02:52:52;5.67;;;5.17;;
9413;SDS011;4746;35.664;139.738;2024-02-15T02:55:19;7.83;;;6.03;;
9413;SDS011;4746;35.664;139.738;2024-02-15T02:57:48;6.13;;;5.53;;
9413;SDS011;4746;35.664;139.738;2024-02-15T03:00:18;6.03;;;5.47;;
9413;SDS011;4746;35.664;139.738;2024-02-15T03:02:47;6.90;;;6.13;;
9413;SDS011;4746;35.664;139.738;2024-02-15T03:05:14;6.60;;;4.88;;
9413;SDS011;4746;35.664;139.738;2024-02-15T03:07:42;7.00;;;5.38;;
9413;SDS011;4746;35.664;139.738;2024-02-15T03:10:09;8.63;;;5.10;;
9413;SDS011;4746;35.664;139.738;2024-02-15T03:12:39;5.50;;;4.17;;
9413;SDS011;4746;35.664;139.738;2024-02-15T03:15:12;5.63;;;4.20;;
9413;SDS011;4746;35.664;139.738;2024-02-15T03:17:41;4.27;;;3.33;;
9413;SDS011;4746;35.664;139.738;2024-02-15T03:20:11;4.07;;;3.77;;
9413;SDS011;4746;35.664;139.738;2024-02-15T03:22:58;6.50;;;3.25;;
9413;SDS011;4746;35.664;139.738;2024-02-15T03:25:28;4.23;;;3.27;;
9413;SDS011;4746;35.664;139.738;2024-02-15T03:27:56;6.17;;;2.93;;
9413;SDS011;4746;35.664;139.738;2024-02-15T03:30:29;6.93;;;3.20;;
9413;SDS011;4746;35.664;139.738;2024-02-15T03:33:01;7.38;;;2.72;;
9413;SDS011;4746;35.664;139.738;2024-02-15T03:35:30;5.23;;;2.80;;
9413;SDS011;4746;35.664;139.738;2024-02-15T03:37:58;6.10;;;2.65;;
9413;SDS011;4746;35.664;139.738;2024-02-15T03:40:29;2.90;;;2.42;;
9413;SDS011;4746;35.664;139.738;2024-02-15T03:42:57;2.25;;;2.00;;
9413;SDS011;4746;35.664;139.738;2024-02-15T03:45:25;3.90;;;2.33;;
9413;SDS011;4746;35.664;139.738;2024-02-15T03:47:53;4.57;;;2.40;;
9413;SDS011;4746;35.664;139.738;2024-02-15T03:50:23;3.88;;;2.40;;
9413;SDS011;4746;35.664;139.738;2024-02-15T03:52:51;5.47;;;2.40;;
9413;SDS011;4746;35.664;139.738;2024-02-15T03:55:18;3.80;;;2.75;;
9413;SDS011;4746;35.664;139.738;2024-02-15T03:57:47;4.28;;;2.42;;
9413;SDS011;4746;35.664;139.738;2024-02-15T04:00:15;5.63;;;2.47;;
9413;SDS011;4746;35.664;139.738;2024-02-15T04:02:50;3.75;;;2.10;;
9413;SDS011;4746;35.664;139.738;2024-02-15T04:05:17;4.32;;;2.28;;
9413;SDS011;4746;35.664;139.738;2024-02-15T04:07:47;2.73;;;1.70;;
9413;SDS011;4746;35.664;139.738;2024-02-15T04:10:16;3.13;;;2.10;;
9413;SDS011;4746;35.664;139.738;2024-02-15T04:12:46;5.40;;;2.70;;
9413;SDS011;4746;35.664;139.738;2024-02-15T04:15:13;2.35;;;2.05;;
9413;SDS011;4746;35.664;139.738;2024-02-15T04:17:42;3.67;;;2.40;;
9413;SDS011;4746;35.664;139.738;2024-02-15T04:20:10;3.53;;;2.55;;
9413;SDS011;4746;35.664;139.738;2024-02-15T04:22:40;3.85;;;2.50;;
9413;SDS011;4746;35.664;139.738;2024-02-15T04:25:08;4.35;;;1.88;;
9413;SDS011;4746;35.664;139.738;2024-02-15T04:27:41;4.03;;;2.60;;
9413;SDS011;4746;35.664;139.738;2024-02-15T04:30:14;3.58;;;2.38;;
9413;SDS011;4746;35.664;139.738;2024-02-15T04:32:42;5.28;;;2.72;;
9413;SDS011;4746;35.664;139.738;2024-02-15T04:35:10;5.15;;;3.25;;
9413;SDS011;4746;35.664;139.738;2024-02-15T04:37:37;5.17;;;2.70;;
9413;SDS011;4746;35.664;139.738;2024-02-15T04:40:06;3.85;;;2.67;;
9413;SDS011;4746;35.664;139.738;2024-02-15T04:42:36;5.82;;;2.50;;
9413;SDS011;4746;35.664;139.738;2024-02-15T04:45:07;5.25;;;3.55;;
9413;SDS011;4746;35.664;139.738;2024-02-15T04:47:38;5.85;;;3.13;;
9413;SDS011;4746;35.664;139.738;2024-02-15T04:50:10;5.60;;;2.57;;
9413;SDS011;4746;35.664;139.738;2024-02-15T04:52:39;4.77;;;2.73;;
9413;SDS011;4746;35.664;139.738;2024-02-15T04:55:11;7.80;;;3.10;;
9413;SDS011;4746;35.664;139.738;2024-02-15T04:57:41;4.73;;;2.90;;
9413;SDS011;4746;35.664;139.738;2024-02-15T05:00:09;3.63;;;2.97;;
9413;SDS011;4746;35.664;139.738;2024-02-15T05:02:38;6.10;;;3.15;;
9413;SDS011;4746;35.664;139.738;2024-02-15T05:05:11;12.25;;;3.17;;
9413;SDS011;4746;35.664;139.738;2024-02-15T05:07:39;3.87;;;2.73;;
9413;SDS011;4746;35.664;139.738;2024-02-15T05:10:08;7.00;;;2.93;;
9413;SDS011;4746;35.664;139.738;2024-02-15T05:12:39;5.15;;;2.72;;
9413;SDS011;4746;35.664;139.738;2024-02-15T05:15:14;4.63;;;3.13;;
9413;SDS011;4746;35.664;139.738;2024-02-15T05:17:43;6.53;;;2.77;;
9413;SDS011;4746;35.664;139.738;2024-02-15T05:20:10;3.95;;;2.25;;
9413;SDS011;4746;35.664;139.738;2024-02-15T05:22:39;4.27;;;3.30;;
9413;SDS011;4746;35.664;139.738;2024-02-15T05:25:13;4.80;;;2.13;;
9413;SDS011;4746;35.664;139.738;2024-02-15T05:27:41;5.40;;;2.43;;
9413;SDS011;4746;35.664;139.738;2024-02-15T05:30:11;4.00;;;2.83;;
9413;SDS011;4746;35.664;139.738;2024-02-15T05:32:40;8.10;;;3.00;;
9413;SDS011;4746;35.664;139.738;2024-02-15T05:35:08;5.23;;;2.30;;
9413;SDS011;4746;35.664;139.738;2024-02-15T05:37:37;5.13;;;2.97;;
9413;SDS011;4746;35.664;139.738;2024-02-15T05:40:05;6.23;;;2.40;;
9413;SDS011;4746;35.664;139.738;2024-02-15T05:42:41;3.70;;;1.87;;
9413;SDS011;4746;35.664;139.738;2024-02-15T05:47:52;5.97;;;2.70;;
9413;SDS011;4746;35.664;139.738;2024-02-15T05:50:20;5.23;;;2.40;;
9413;SDS011;4746;35.664;139.738;2024-02-15T05:52:49;5.87;;;2.60;;
9413;SDS011;4746;35.664;139.738;2024-02-15T05:55:20;5.27;;;2.43;;
9413;SDS011;4746;35.664;139.738;2024-02-15T05:57:47;3.17;;;2.03;;
9413;SDS011;4746;35.664;139.738;2024-02-15T06:00:15;5.33;;;2.77;;
9413;SDS011;4746;35.664;139.738;2024-02-15T06:02:44;7.67;;;2.33;;
9413;SDS011;4746;35.664;139.738;2024-02-15T06:05:14;3.80;;;2.67;;
9413;SDS011;4746;35.664;139.738;2024-02-15T06:07:43;6.43;;;2.43;;
9413;SDS011;4746;35.664;139.738;2024-02-15T06:10:11;5.10;;;2.60;;
9413;SDS011;4746;35.664;139.738;2024-02-15T06:12:40;6.00;;;2.90;;
9413;SDS011;4746;35.664;139.738;2024-02-15T06:15:08;4.47;;;2.30;;
9413;SDS011;4746;35.664;139.738;2024-02-15T06:17:46;8.93;;;2.70;;
9413;SDS011;4746;35.664;139.738;2024-02-15T06:20:16;7.87;;;2.30;;
9413;SDS011;4746;35.664;139.738;2024-02-15T06:22:45;11.63;;;3.03;;
9413;SDS011;4746;35.664;139.738;2024-02-15T06:25:13;4.00;;;2.30;;
9413;SDS011;4746;35.664;139.738;2024-02-15T06:28:01;3.13;;;2.10;;
9413;SDS011;4746;35.664;139.738;2024-02-15T06:30:41;4.93;;;2.20;;
9413;SDS011;4746;35.664;139.738;2024-02-15T06:33:26;5.43;;;2.40;;
9413;SDS011;4746;35.664;139.738;2024-02-15T06:36:13;5.87;;;2.60;;
9413;SDS011;4746;35.664;139.738;2024-02-15T06:38:59;4.60;;;2.30;;
9413;SDS011;4746;35.664;139.738;2024-02-15T06:41:45;4.43;;;2.50;;
9413;SDS011;4746;35.664;139.738;2024-02-15T06:44:12;3.53;;;1.97;;
9413;SDS011;4746;35.664;139.738;2024-02-15T06:46:39;6.30;;;2.20;;
9413;SDS011;4746;35.664;139.738;2024-02-15T06:49:07;6.83;;;2.30;;
9413;SDS011;4746;35.664;139.738;2024-02-15T06:51:34;4.17;;;2.00;;
9413;SDS011;4746;35.664;139.738;2024-02-15T06:54:03;5.75;;;2.28;;
9413;SDS011;4746;35.664;139.738;2024-02-15T06:56:35;6.13;;;1.77;;
9413;SDS011;4746;35.664;139.738;2024-02-15T06:59:05;8.18;;;2.25;;
9413;SDS011;4746;35.664;139.738;2024-02-15T07:01:35;3.63;;;1.95;;
9413;SDS011;4746;35.664;139.738;2024-02-15T07:04:03;2.00;;;1.60;;
9413;SDS011;4746;35.664;139.738;2024-02-15T07:06:31;5.07;;;1.77;;
9413;SDS011;4746;35.664;139.738;2024-02-15T07:09:05;2.80;;;1.70;;
9413;SDS011;4746;35.664;139.738;2024-02-15T07:11:33;2.63;;;1.50;;
9413;SDS011;4746;35.664;139.738;2024-02-15T07:14:04;2.92;;;1.40;;
9413;SDS011;4746;35.664;139.738;2024-02-15T07:16:33;2.58;;;1.65;;
9413;SDS011;4746;35.664;139.738;2024-02-15T07:19:00;4.90;;;2.30;;
9413;SDS011;4746;35.664;139.738;2024-02-15T07:21:28;3.97;;;2.08;;
9413;SDS011;4746;35.664;139.738;2024-02-15T07:23:57;3.83;;;1.67;;
9413;SDS011;4746;35.664;139.738;2024-02-15T07:26:24;4.82;;;1.80;;
9413;SDS011;4746;35.664;139.738;2024-02-15T07:28:56;7.82;;;2.17;;
9413;SDS011;4746;35.664;139.738;2024-02-15T07:31:27;6.10;;;2.35;;
9413;SDS011;4746;35.664;139.738;2024-02-15T07:33:55;2.50;;;1.50;;
9413;SDS011;4746;35.664;139.738;2024-02-15T07:36:23;2.55;;;1.63;;
9413;SDS011;4746;35.664;139.738;2024-02-15T07:38:53;7.38;;;2.40;;
9413;SDS011;4746;35.664;139.738;2024-02-15T07:41:26;6.05;;;2.25;;
9413;SDS011;4746;35.664;139.738;2024-02-15T07:43:54;4.38;;;1.83;;
9413;SDS011;4746;35.664;139.738;2024-02-15T07:46:24;7.82;;;2.45;;
9413;SDS011;4746;35.664;139.738;2024-02-15T07:48:54;5.63;;;2.33;;
9413;SDS011;4746;35.664;139.738;2024-02-15T07:51:24;6.40;;;3.03;;
9413;SDS011;4746;35.664;139.738;2024-02-15T07:53:53;6.38;;;2.63;;
9413;SDS011;4746;35.664;139.738;2024-02-15T07:56:20;4.60;;;2.33;;
9413;SDS011;4746;35.664;139.738;2024-02-15T07:58:48;5.03;;;2.30;;
9413;SDS011;4746;35.664;139.738;2024-02-15T08:01:17;6.97;;;2.13;;
9413;SDS011;4746;35.664;139.738;2024-02-15T08:03:48;4.63;;;2.30;;
9413;SDS011;4746;35.664;139.738;2024-02-15T08:06:16;7.03;;;2.30;;
9413;SDS011;4746;35.664;139.738;2024-02-15T08:08:44;5.97;;;2.50;;
9413;SDS011;4746;35.664;139.738;2024-02-15T08:11:14;4.93;;;2.20;;
9413;SDS011;4746;35.664;139.738;2024-02-15T08:16:11;5.80;;;2.73;;
9413;SDS011;4746;35.664;139.738;2024-02-15T08:18:42;3.50;;;2.00;;
9413;SDS011;4746;35.664;139.738;2024-02-15T08:21:12;8.77;;;2.93;;
9413;SDS011;4746;35.664;139.738;2024-02-15T08:23:40;4.80;;;2.13;;
9413;SDS011;4746;35.664;139.738;2024-02-15T08:26:08;4.23;;;2.17;;
9413;SDS011;4746;35.664;139.738;2024-02-15T08:28:37;6.23;;;2.70;;
9413;SDS011;4746;35.664;139.738;2024-02-15T08:31:05;3.20;;;1.93;;
9413;SDS011;4746;35.664;139.738;2024-02-15T08:33:33;7.67;;;2.70;;
9413;SDS011;4746;35.664;139.738;2024-02-15T08:36:01;4.23;;;2.33;;
9413;SDS011;4746;35.664;139.738;2024-02-15T08:38:30;3.30;;;2.10;;
9413;SDS011;4746;35.664;139.738;2024-02-15T08:40:59;4.00;;;1.47;;
9413;SDS011;4746;35.664;139.738;2024-02-15T08:43:27;4.27;;;2.00;;
9413;SDS011;4746;35.664;139.738;2024-02-15T08:45:54;3.90;;;2.30;;
9413;SDS011;4746;35.664;139.738;2024-02-15T08:48:23;4.80;;;2.47;;
9413;SDS011;4746;35.664;139.738;2024-02-15T08:50:53;4.17;;;2.37;;
9413;SDS011;4746;35.664;139.738;2024-02-15T08:53:21;5.10;;;2.60;;
9413;SDS011;4746;35.664;139.738;2024-02-15T08:55:49;3.87;;;2.00;;
9413;SDS011;4746;35.664;139.738;2024-02-15T08:58:18;5.37;;;1.73;;
9413;SDS011;4746;35.664;139.738;2024-02-15T09:00:46;7.90;;;2.37;;
9413;SDS011;4746;35.664;139.738;2024-02-15T09:03:14;4.83;;;2.57;;
9413;SDS011;4746;35.664;139.738;2024-02-15T09:05:44;2.67;;;1.93;;
9413;SDS011;4746;35.664;139.738;2024-02-15T09:08:11;5.90;;;2.17;;
9413;SDS011;4746;35.664;139.738;2024-02-15T09:10:39;7.90;;;2.23;;
9413;SDS011;4746;35.664;139.738;2024-02-15T09:13:08;4.30;;;3.00;;
9413;SDS011;4746;35.664;139.738;2024-02-15T09:15:35;3.67;;;2.40;;
9413;SDS011;4746;35.664;139.738;2024-02-15T09:18:04;5.20;;;2.10;;
9413;SDS011;4746;35.664;139.738;2024-02-15T09:20:35;5.33;;;2.00;;
9413;SDS011;4746;35.664;139.738;2024-02-15T09:23:05;5.47;;;2.00;;
9413;SDS011;4746;35.664;139.738;2024-02-15T09:25:37;6.43;;;2.07;;
9413;SDS011;4746;35.664;139.738;2024-02-15T09:28:05;4.87;;;2.60;;
9413;SDS011;4746;35.664;139.738;2024-02-15T09:30:33;4.27;;;2.30;;
9413;SDS011;4746;35.664;139.738;2024-02-15T09:33:01;4.40;;;2.00;;
9413;SDS011;4746;35.664;139.738;2024-02-15T09:35:31;4.17;;;2.47;;
9413;SDS011;4746;35.664;139.738;2024-02-15T09:37:59;3.97;;;2.30;;
9413;SDS011;4746;35.664;139.738;2024-02-15T09:40:26;6.43;;;2.60;;
9413;SDS011;4746;35.664;139.738;2024-02-15T09:42:54;6.03;;;2.37;;
9413;SDS011;4746;35.664;139.738;2024-02-15T09:45:22;3.43;;;2.23;;
9413;SDS011;4746;35.664;139.738;2024-02-15T09:47:50;5.23;;;2.50;;
9413;SDS011;4746;35.664;139.738;2024-02-15T09:50:19;6.63;;;2.30;;
9413;SDS011;4746;35.664;139.738;2024-02-15T09:52:50;4.10;;;2.20;;
9413;SDS011;4746;35.664;139.738;2024-02-15T09:55:22;5.80;;;2.50;;
9413;SDS011;4746;35.664;139.738;2024-02-15T09:57:52;6.20;;;2.17;;
9413;SDS011;4746;35.664;139.738;2024-02-15T10:00:20;5.90;;;2.63;;
9413;SDS011;4746;35.664;139.738;2024-02-15T10:02:52;5.00;;;2.67;;
9413;SDS011;4746;35.664;139.738;2024-02-15T10:05:23;4.37;;;2.13;;
9413;SDS011;4746;35.664;139.738;2024-02-15T10:07:50;5.23;;;2.27;;
9413;SDS011;4746;35.664;139.738;2024-02-15T10:12:48;2.50;;;1.60;;
9413;SDS011;4746;35.664;139.738;2024-02-15T10:15:38;5.07;;;2.10;;
9413;SDS011;4746;35.664;139.738;2024-02-15T10:18:10;4.00;;;1.90;;
9413;SDS011;4746;35.664;139.738;2024-02-15T10:20:38;3.57;;;2.00;;
9413;SDS011;4746;35.664;139.738;2024-02-15T10:23:11;6.80;;;2.33;;
9413;SDS011;4746;35.664;139.738;2024-02-15T10:25:43;2.83;;;1.93;;
9413;SDS011;4746;35.664;139.738;2024-02-15T10:28:12;5.07;;;1.87;;
9413;SDS011;4746;35.664;139.738;2024-02-15T10:30:48;3.30;;;1.87;;
9413;SDS011;4746;35.664;139.738;2024-02-15T10:33:28;3.67;;;1.70;;
9413;SDS011;4746;35.664;139.738;2024-02-15T10:36:08;5.47;;;1.60;;
9413;SDS011;4746;35.664;139.738;2024-02-15T10:38:37;4.50;;;2.37;;
9413;SDS011;4746;35.664;139.738;2024-02-15T10:41:07;5.03;;;2.40;;
9413;SDS011;4746;35.664;139.738;2024-02-15T10:43:39;5.63;;;2.40;;
9413;SDS011;4746;35.664;139.738;2024-02-15T10:46:10;2.27;;;1.53;;
9413;SDS011;4746;35.664;139.738;2024-02-15T10:48:38;3.10;;;1.57;;
9413;SDS011;4746;35.664;139.738;2024-02-15T10:51:09;4.87;;;2.27;;
9413;SDS011;4746;35.664;139.738;2024-02-15T10:53:44;5.33;;;1.87;;
9413;SDS011;4746;35.664;139.738;2024-02-15T10:56:27;4.27;;;3.07;;
9413;SDS011;4746;35.664;139.738;2024-02-15T10:59:17;5.43;;;2.27;;
9413;SDS011;4746;35.664;139.738;2024-02-15T11:01:46;4.43;;;2.37;;
9413;SDS011;4746;35.664;139.738;2024-02-15T11:04:20;6.07;;;2.60;;
9413;SDS011;4746;35.664;139.738;2024-02-15T11:06:52;4.13;;;2.20;;
9413;SDS011;4746;35.664;139.738;2024-02-15T11:09:21;11.90;;;4.20;;
9413;SDS011;4746;35.664;139.738;2024-02-15T11:11:54;7.17;;;2.80;;
9413;SDS011;4746;35.664;139.738;2024-02-15T11:14:26;6.93;;;3.37;;
9413;SDS011;4746;35.664;139.738;2024-02-15T11:17:01;7.07;;;2.57;;
9413;SDS011;4746;35.664;139.738;2024-02-15T11:22:11;5.47;;;2.70;;
9413;SDS011;4746;35.664;139.738;2024-02-15T11:24:51;3.70;;;2.20;;
9413;SDS011;4746;35.664;139.738;2024-02-15T11:27:26;10.37;;;2.87;;
9413;SDS011;4746;35.664;139.738;2024-02-15T11:30:00;5.33;;;2.37;;
9413;SDS011;4746;35.664;139.738;2024-02-15T11:32:41;8.93;;;3.40;;
9413;SDS011;4746;35.664;139.738;2024-02-15T11:35:25;5.80;;;2.80;;
9413;SDS011;4746;35.664;139.738;2024-02-15T11:37:55;8.70;;;3.00;;
9413;SDS011;4746;35.664;139.738;2024-02-15T11:40:26;10.27;;;3.27;;
9413;SDS011;4746;35.664;139.738;2024-02-15T11:43:09;7.17;;;2.30;;
9413;SDS011;4746;35.664;139.738;2024-02-15T11:46:16;7.80;;;3.40;;
9413;SDS011;4746;35.664;139.738;2024-02-15T11:48:45;7.43;;;3.80;;
9413;SDS011;4746;35.664;139.738;2024-02-15T11:51:30;8.70;;;3.27;;
9413;SDS011;4746;35.664;139.738;2024-02-15T11:54:12;10.27;;;3.10;;
9413;SDS011;4746;35.664;139.738;2024-02-15T11:56:56;8.03;;;2.70;;
9413;SDS011;4746;35.664;139.738;2024-02-15T11:59:42;9.93;;;4.00;;
9413;SDS011;4746;35.664;139.738;2024-02-15T12:02:39;6.07;;;2.23;;
9413;SDS011;4746;35.664;139.738;2024-02-15T12:05:26;7.73;;;3.00;;
9413;SDS011;4746;35.664;139.738;2024-02-15T12:08:13;4.03;;;1.77;;
9413;SDS011;4746;35.664;139.738;2024-02-15T12:10:59;9.53;;;2.77;;
9413;SDS011;4746;35.664;139.738;2024-02-15T12:13:50;6.50;;;2.67;;
9413;SDS011;4746;35.664;139.738;2024-02-15T12:16:36;9.17;;;3.40;;
9413;SDS011;4746;35.664;139.738;2024-02-15T12:19:24;8.10;;;2.93;;
9413;SDS011;4746;35.664;139.738;2024-02-15T12:21:51;7.73;;;3.50;;
9413;SDS011;4746;35.664;139.738;2024-02-15T12:24:20;3.97;;;2.37;;
9413;SDS011;4746;35.664;139.738;2024-02-15T12:26:59;4.63;;;2.47;;
9413;SDS011;4746;35.664;139.738;2024-02-15T12:29:31;6.83;;;2.37;;
9413;SDS011;4746;35.664;139.738;2024-02-15T12:32:00;8.87;;;3.03;;
9413;SDS011;4746;35.664;139.738;2024-02-15T12:34:29;6.73;;;2.50;;
9413;SDS011;4746;35.664;139.738;2024-02-15T12:37:06;6.93;;;2.90;;
9413;SDS011;4746;35.664;139.738;2024-02-15T12:39:34;5.93;;;2.30;;
9413;SDS011;4746;35.664;139.738;2024-02-15T12:42:02;8.87;;;2.67;;
9413;SDS011;4746;35.664;139.738;2024-02-15T12:44:35;9.53;;;2.77;;
9413;SDS011;4746;35.664;139.738;2024-02-15T12:47:02;5.83;;;2.83;;
9413;SDS011;4746;35.664;139.738;2024-02-15T12:49:31;7.10;;;2.70;;
9413;SDS011;4746;35.664;139.738;2024-02-15T12:55:15;8.73;;;2.13;;
9413;SDS011;4746;35.664;139.738;2024-02-15T12:57:50;5.87;;;1.90;;
9413;SDS011;4746;35.664;139.738;2024-02-15T13:00:22;3.73;;;2.37;;
9413;SDS011;4746;35.664;139.738;2024-02-15T13:02:55;5.67;;;2.20;;
9413;SDS011;4746;35.664;139.738;2024-02-15T13:05:27;4.73;;;1.70;;
9413;SDS011;4746;35.664;139.738;2024-02-15T13:07:56;4.47;;;2.07;;
9413;SDS011;4746;35.664;139.738;2024-02-15T13:10:24;4.13;;;1.97;;
9413;SDS011;4746;35.664;139.738;2024-02-15T13:12:54;4.23;;;2.23;;
9413;SDS011;4746;35.664;139.738;2024-02-15T13:15:23;7.53;;;2.60;;
9413;SDS011;4746;35.664;139.738;2024-02-15T13:17:58;4.63;;;1.73;;
9413;SDS011;4746;35.664;139.738;2024-02-15T13:20:29;5.47;;;2.03;;
9413;SDS011;4746;35.664;139.738;2024-02-15T13:23:04;4.10;;;2.23;;
9413;SDS011;4746;35.664;139.738;2024-02-15T13:25:48;7.63;;;3.13;;
9413;SDS011;4746;35.664;139.738;2024-02-15T13:28:17;6.20;;;2.60;;
9413;SDS011;4746;35.664;139.738;2024-02-15T13:30:45;6.23;;;2.67;;
9413;SDS011;4746;35.664;139.738;2024-02-15T13:33:14;8.90;;;3.20;;
9413;SDS011;4746;35.664;139.738;2024-02-15T13:35:42;8.83;;;3.03;;
9413;SDS011;4746;35.664;139.738;2024-02-15T13:38:11;7.70;;;3.03;;
9413;SDS011;4746;35.664;139.738;2024-02-15T13:40:48;8.63;;;3.30;;
9413;SDS011;4746;35.664;139.738;2024-02-15T13:43:16;10.73;;;3.03;;
9413;SDS011;4746;35.664;139.738;2024-02-15T13:45:44;8.53;;;2.83;;
9413;SDS011;4746;35.664;139.738;2024-02-15T13:48:14;11.17;;;3.30;;
9413;SDS011;4746;35.664;139.738;2024-02-15T13:50:42;6.20;;;2.30;;
9413;SDS011;4746;35.664;139.738;2024-02-15T13:53:10;6.67;;;2.50;;
9413;SDS011;4746;35.664;139.738;2024-02-15T13:55:39;9.57;;;2.93;;
9413;SDS011;4746;35.664;139.738;2024-02-15T13:58:07;5.20;;;2.43;;
9413;SDS011;4746;35.664;139.738;2024-02-15T14:00:37;10.47;;;2.90;;
9413;SDS011;4746;35.664;139.738;2024-02-15T14:03:07;7.70;;;2.83;;
9413;SDS011;4746;35.664;139.738;2024-02-15T14:05:36;6.67;;;2.90;;
9413;SDS011;4746;35.664;139.738;2024-02-15T14:08:07;7.50;;;2.67;;
9413;SDS011;4746;35.664;139.738;2024-02-15T14:10:36;6.47;;;2.87;;
9413;SDS011;4746;35.664;139.738;2024-02-15T14:13:04;8.40;;;2.57;;
9413;SDS011;4746;35.664;139.738;2024-02-15T14:15:36;7.10;;;2.70;;
9413;SDS011;4746;35.664;139.738;2024-02-15T14:18:05;7.70;;;2.40;;
9413;SDS011;4746;35.664;139.738;2024-02-15T14:20:44;6.07;;;2.80;;
9413;SDS011;4746;35.664;139.738;2024-02-15T14:23:16;8.03;;;2.80;;
9413;SDS011;4746;35.664;139.738;2024-02-15T14:25:43;6.33;;;2.67;;
9413;SDS011;4746;35.664;139.738;2024-02-15T14:28:11;3.17;;;1.97;;
9413;SDS011;4746;35.664;139.738;2024-02-15T14:30:40;5.50;;;2.30;;
9413;SDS011;4746;35.664;139.738;2024-02-15T14:33:25;7.03;;;2.40;;
9413;SDS011;4746;35.664;139.738;2024-02-15T14:35:53;6.50;;;2.20;;
9413;SDS011;4746;35.664;139.738;2024-02-15T14:38:21;9.33;;;2.63;;
9413;SDS011;4746;35.664;139.738;2024-02-15T14:40:49;8.50;;;2.87;;
9413;SDS011;4746;35.664;139.738;2024-02-15T14:43:23;10.23;;;2.70;;
9413;SDS011;4746;35.664;139.738;2024-02-15T14:45:52;8.47;;;2.60;;
9413;SDS011;4746;35.664;139.738;2024-02-15T14:48:21;8.07;;;3.10;;
9413;SDS011;4746;35.664;139.738;2024-02-15T14:50:49;11.30;;;3.47;;
9413;SDS011;4746;35.664;139.738;2024-02-15T14:53:18;13.33;;;3.17;;
9413;SDS011;4746;35.664;139.738;2024-02-15T14:55:45;7.90;;;2.67;;
9413;SDS011;4746;35.664;139.738;2024-02-15T14:58:13;11.40;;;2.80;;
9413;SDS011;4746;35.664;139.738;2024-02-15T15:00:44;11.63;;;2.90;;
9413;SDS011;4746;35.664;139.738;2024-02-15T15:03:12;8.17;;;2.87;;
9413;SDS011;4746;35.664;139.738;2024-02-15T15:05:44;4.07;;;1.80;;
9413;SDS011;4746;35.664;139.738;2024-02-15T15:08:30;4.30;;;1.90;;
9413;SDS011;4746;35.664;139.738;2024-02-15T15:11:15;7.90;;;2.20;;
9413;SDS011;4746;35.664;139.738;2024-02-15T15:14:01;6.57;;;2.00;;
9413;SDS011;4746;35.664;139.738;2024-02-15T15:16:29;9.23;;;2.00;;
9413;SDS011;4746;35.664;139.738;2024-02-15T15:18:57;5.93;;;1.73;;